sensor_id;sensor_type;location;lat;lon;timestamp;P1;durP1;ratioP1;P2;durP2;ratioP2
44197;SDS011;30157;55.512;37.764;2023-02-28T00:01:14;11.55;;;4.82;;
44197;SDS011;30157;55.512;37.764;2023-02-28T00:03:40;9.93;;;4.75;;
44197;SDS011;30157;55.512;37.764;2023-02-28T00:06:07;10.20;;;5.03;;
44197;SDS011;30157;55.512;37.764;2023-02-28T00:08:34;9.95;;;5.07;;
44197;SDS011;30157;55.512;37.764;2023-02-28T00:11:01;8.30;;;4.35;;
44197;SDS011;30157;55.512;37.764;2023-02-28T00:13:28;10.48;;;5.28;;
44197;SDS011;30157;55.512;37.764;2023-02-28T00:16:03;9.75;;;4.55;;
44197;SDS011;30157;55.512;37.764;2023-02-28T00:18:31;10.88;;;5.38;;
44197;SDS011;30157;55.512;37.764;2023-02-28T00:20:57;9.40;;;4.55;;
44197;SDS011;30157;55.512;37.764;2023-02-28T00:23:23;9.25;;;4.35;;
44197;SDS011;30157;55.512;37.764;2023-02-28T00:25:49;10.07;;;4.82;;
44197;SDS011;30157;55.512;37.764;2023-02-28T00:28:15;9.70;;;4.22;;
44197;SDS011;30157;55.512;37.764;2023-02-28T00:30:41;8.98;;;4.60;;
44197;SDS011;30157;55.512;37.764;2023-02-28T00:33:07;11.65;;;4.60;;
44197;SDS011;30157;55.512;37.764;2023-02-28T00:35:32;9.45;;;4.55;;
44197;SDS011;30157;55.512;37.764;2023-02-28T00:37:58;7.80;;;4.18;;
44197;SDS011;30157;55.512;37.764;2023-02-28T00:40:26;9.43;;;4.78;;
44197;SDS011;30157;55.512;37.764;2023-02-28T00:42:52;11.93;;;5.10;;
44197;SDS011;30157;55.512;37.764;2023-02-28T00:45:18;8.35;;;4.63;;
44197;SDS011;30157;55.512;37.764;2023-02-28T00:47:44;7.90;;;4.30;;
44197;SDS011;30157;55.512;37.764;2023-02-28T00:50:11;10.40;;;4.88;;
44197;SDS011;30157;55.512;37.764;2023-02-28T00:52:37;8.45;;;4.40;;
44197;SDS011;30157;55.512;37.764;2023-02-28T00:55:06;9.00;;;4.00;;
44197;SDS011;30157;55.512;37.764;2023-02-28T00:57:32;9.30;;;4.65;;
44197;SDS011;30157;55.512;37.764;2023-02-28T00:59:57;8.18;;;4.28;;
44197;SDS011;30157;55.512;37.764;2023-02-28T01:02:23;10.80;;;5.20;;
44197;SDS011;30157;55.512;37.764;2023-02-28T01:04:51;10.20;;;4.78;;
44197;SDS011;30157;55.512;37.764;2023-02-28T01:07:17;9.80;;;4.97;;
44197;SDS011;30157;55.512;37.764;2023-02-28T01:09:43;7.72;;;4.40;;
44197;SDS011;30157;55.512;37.764;2023-02-28T01:12:08;8.75;;;4.30;;
44197;SDS011;30157;55.512;37.764;2023-02-28T01:14:34;9.82;;;4.90;;
44197;SDS011;30157;55.512;37.764;2023-02-28T01:17:00;8.93;;;4.35;;
44197;SDS011;30157;55.512;37.764;2023-02-28T01:19:26;10.52;;;4.90;;
44197;SDS011;30157;55.512;37.764;2023-02-28T01:21:51;9.68;;;4.88;;
44197;SDS011;30157;55.512;37.764;2023-02-28T01:24:17;8.65;;;5.03;;
44197;SDS011;30157;55.512;37.764;2023-02-28T01:26:44;10.30;;;5.25;;
44197;SDS011;30157;55.512;37.764;2023-02-28T01:29:09;10.32;;;5.07;;
44197;SDS011;30157;55.512;37.764;2023-02-28T01:31:35;10.65;;;4.97;;
44197;SDS011;30157;55.512;37.764;2023-02-28T01:34:01;11.60;;;5.28;;
44197;SDS011;30157;55.512;37.764;2023-02-28T01:36:29;10.70;;;5.40;;
44197;SDS011;30157;55.512;37.764;2023-02-28T01:38:55;10.57;;;5.78;;
44197;SDS011;30157;55.512;37.764;2023-02-28T01:41:22;9.30;;;4.80;;
44197;SDS011;30157;55.512;37.764;2023-02-28T01:43:54;10.93;;;5.70;;
44197;SDS011;30157;55.512;37.764;2023-02-28T01:46:22;11.02;;;5.82;;
44197;SDS011;30157;55.512;37.764;2023-02-28T01:48:53;9.07;;;5.00;;
44197;SDS011;30157;55.512;37.764;2023-02-28T01:51:37;9.38;;;4.70;;
44197;SDS011;30157;55.512;37.764;2023-02-28T01:54:18;8.52;;;4.65;;
44197;SDS011;30157;55.512;37.764;2023-02-28T01:56:49;10.30;;;5.47;;
44197;SDS011;30157;55.512;37.764;2023-02-28T01:59:22;11.68;;;5.70;;
44197;SDS011;30157;55.512;37.764;2023-02-28T02:01:55;12.32;;;5.75;;
44197;SDS011;30157;55.512;37.764;2023-02-28T02:04:21;10.60;;;5.05;;
44197;SDS011;30157;55.512;37.764;2023-02-28T02:06:52;11.05;;;5.07;;
44197;SDS011;30157;55.512;37.764;2023-02-28T02:09:18;11.85;;;5.45;;
44197;SDS011;30157;55.512;37.764;2023-02-28T02:11:43;10.48;;;5.50;;
44197;SDS011;30157;55.512;37.764;2023-02-28T02:17:29;11.52;;;5.07;;
44197;SDS011;30157;55.512;37.764;2023-02-28T02:23:02;11.68;;;5.50;;
44197;SDS011;30157;55.512;37.764;2023-02-28T02:25:42;11.15;;;5.53;;
44197;SDS011;30157;55.512;37.764;2023-02-28T02:36:27;10.13;;;5.60;;
44197;SDS011;30157;55.512;37.764;2023-02-28T02:39:01;12.48;;;5.55;;
44197;SDS011;30157;55.512;37.764;2023-02-28T02:47:08;11.13;;;5.38;;
44197;SDS011;30157;55.512;37.764;2023-02-28T02:49:38;10.98;;;5.40;;
44197;SDS011;30157;55.512;37.764;2023-02-28T02:52:09;10.52;;;4.93;;
44197;SDS011;30157;55.512;37.764;2023-02-28T02:54:46;8.52;;;4.05;;
44197;SDS011;30157;55.512;37.764;2023-02-28T02:57:22;7.75;;;4.28;;
44197;SDS011;30157;55.512;37.764;2023-02-28T02:59:54;7.50;;;4.15;;
44197;SDS011;30157;55.512;37.764;2023-02-28T03:02:25;8.75;;;4.18;;
44197;SDS011;30157;55.512;37.764;2023-02-28T03:05:00;8.35;;;4.93;;
44197;SDS011;30157;55.512;37.764;2023-02-28T03:07:30;9.75;;;4.70;;
44197;SDS011;30157;55.512;37.764;2023-02-28T03:09:56;8.82;;;4.55;;
44197;SDS011;30157;55.512;37.764;2023-02-28T03:12:23;9.30;;;4.75;;
44197;SDS011;30157;55.512;37.764;2023-02-28T03:17:49;10.63;;;4.85;;
44197;SDS011;30157;55.512;37.764;2023-02-28T03:20:37;11.77;;;5.30;;
44197;SDS011;30157;55.512;37.764;2023-02-28T03:23:16;11.27;;;5.68;;
44197;SDS011;30157;55.512;37.764;2023-02-28T03:25:56;10.52;;;5.55;;
44197;SDS011;30157;55.512;37.764;2023-02-28T03:31:21;12.77;;;5.53;;
44197;SDS011;30157;55.512;37.764;2023-02-28T03:34:33;9.50;;;4.70;;
44197;SDS011;30157;55.512;37.764;2023-02-28T03:37:06;10.48;;;5.25;;
44197;SDS011;30157;55.512;37.764;2023-02-28T03:39:37;9.57;;;4.45;;
44197;SDS011;30157;55.512;37.764;2023-02-28T03:42:09;11.75;;;5.85;;
44197;SDS011;30157;55.512;37.764;2023-02-28T03:44:48;12.55;;;4.72;;
44197;SDS011;30157;55.512;37.764;2023-02-28T03:47:24;11.07;;;5.75;;
44197;SDS011;30157;55.512;37.764;2023-02-28T03:50:05;10.57;;;5.20;;
44197;SDS011;30157;55.512;37.764;2023-02-28T03:55:28;10.75;;;4.80;;
44197;SDS011;30157;55.512;37.764;2023-02-28T04:01:20;12.20;;;5.47;;
44197;SDS011;30157;55.512;37.764;2023-02-28T04:03:51;8.40;;;4.65;;
44197;SDS011;30157;55.512;37.764;2023-02-28T04:06:18;8.88;;;3.85;;
44197;SDS011;30157;55.512;37.764;2023-02-28T04:08:46;10.55;;;4.88;;
44197;SDS011;30157;55.512;37.764;2023-02-28T04:11:16;9.68;;;4.63;;
44197;SDS011;30157;55.512;37.764;2023-02-28T04:13:46;9.60;;;4.60;;
44197;SDS011;30157;55.512;37.764;2023-02-28T04:16:12;11.43;;;4.43;;
44197;SDS011;30157;55.512;37.764;2023-02-28T04:18:38;8.55;;;4.07;;
44197;SDS011;30157;55.512;37.764;2023-02-28T04:21:05;10.25;;;4.13;;
44197;SDS011;30157;55.512;37.764;2023-02-28T04:23:32;10.48;;;5.03;;
44197;SDS011;30157;55.512;37.764;2023-02-28T04:25:58;11.70;;;5.10;;
44197;SDS011;30157;55.512;37.764;2023-02-28T04:28:24;9.93;;;5.00;;
44197;SDS011;30157;55.512;37.764;2023-02-28T04:30:58;9.43;;;4.60;;
44197;SDS011;30157;55.512;37.764;2023-02-28T04:33:26;11.82;;;4.82;;
44197;SDS011;30157;55.512;37.764;2023-02-28T04:36:02;9.70;;;4.43;;
44197;SDS011;30157;55.512;37.764;2023-02-28T04:38:37;9.10;;;4.65;;
44197;SDS011;30157;55.512;37.764;2023-02-28T04:41:04;9.57;;;4.68;;
44197;SDS011;30157;55.512;37.764;2023-02-28T04:43:30;9.15;;;4.55;;
44197;SDS011;30157;55.512;37.764;2023-02-28T04:45:57;10.73;;;4.82;;
44197;SDS011;30157;55.512;37.764;2023-02-28T04:48:27;10.13;;;4.53;;
44197;SDS011;30157;55.512;37.764;2023-02-28T04:50:54;10.63;;;4.80;;
44197;SDS011;30157;55.512;37.764;2023-02-28T04:53:20;10.43;;;4.82;;
44197;SDS011;30157;55.512;37.764;2023-02-28T04:55:46;7.65;;;4.13;;
44197;SDS011;30157;55.512;37.764;2023-02-28T04:58:12;10.27;;;5.03;;
44197;SDS011;30157;55.512;37.764;2023-02-28T05:00:38;8.52;;;5.00;;
44197;SDS011;30157;55.512;37.764;2023-02-28T05:03:04;7.75;;;4.50;;
44197;SDS011;30157;55.512;37.764;2023-02-28T05:05:30;9.18;;;4.45;;
44197;SDS011;30157;55.512;37.764;2023-02-28T05:07:56;7.20;;;3.92;;
44197;SDS011;30157;55.512;37.764;2023-02-28T05:10:22;8.68;;;4.28;;
44197;SDS011;30157;55.512;37.764;2023-02-28T05:12:47;7.75;;;4.38;;
44197;SDS011;30157;55.512;37.764;2023-02-28T05:15:14;7.22;;;4.47;;
44197;SDS011;30157;55.512;37.764;2023-02-28T05:17:41;7.93;;;4.22;;
44197;SDS011;30157;55.512;37.764;2023-02-28T05:20:07;8.25;;;4.32;;
44197;SDS011;30157;55.512;37.764;2023-02-28T05:22:39;6.75;;;4.13;;
44197;SDS011;30157;55.512;37.764;2023-02-28T05:25:05;8.77;;;5.10;;
44197;SDS011;30157;55.512;37.764;2023-02-28T05:27:32;8.02;;;4.22;;
44197;SDS011;30157;55.512;37.764;2023-02-28T05:29:58;7.28;;;4.20;;
44197;SDS011;30157;55.512;37.764;2023-02-28T05:32:24;8.70;;;4.57;;
44197;SDS011;30157;55.512;37.764;2023-02-28T05:34:53;6.97;;;3.88;;
44197;SDS011;30157;55.512;37.764;2023-02-28T05:37:19;8.00;;;4.68;;
44197;SDS011;30157;55.512;37.764;2023-02-28T05:39:44;6.68;;;4.25;;
44197;SDS011;30157;55.512;37.764;2023-02-28T05:42:12;6.97;;;4.05;;
44197;SDS011;30157;55.512;37.764;2023-02-28T05:44:38;6.85;;;4.03;;
44197;SDS011;30157;55.512;37.764;2023-02-28T05:47:03;7.25;;;4.13;;
44197;SDS011;30157;55.512;37.764;2023-02-28T05:49:31;7.43;;;3.90;;
44197;SDS011;30157;55.512;37.764;2023-02-28T05:51:57;5.53;;;3.60;;
44197;SDS011;30157;55.512;37.764;2023-02-28T05:54:23;6.95;;;4.38;;
44197;SDS011;30157;55.512;37.764;2023-02-28T05:56:48;9.15;;;4.03;;
44197;SDS011;30157;55.512;37.764;2023-02-28T05:59:14;8.68;;;3.30;;
44197;SDS011;30157;55.512;37.764;2023-02-28T06:01:43;9.60;;;4.60;;
44197;SDS011;30157;55.512;37.764;2023-02-28T06:04:13;6.65;;;3.85;;
44197;SDS011;30157;55.512;37.764;2023-02-28T06:06:43;6.97;;;4.15;;
44197;SDS011;30157;55.512;37.764;2023-02-28T06:09:13;5.22;;;3.55;;
44197;SDS011;30157;55.512;37.764;2023-02-28T06:11:38;6.63;;;4.00;;
44197;SDS011;30157;55.512;37.764;2023-02-28T06:14:04;12.18;;;5.65;;
44197;SDS011;30157;55.512;37.764;2023-02-28T06:16:31;6.75;;;3.50;;
44197;SDS011;30157;55.512;37.764;2023-02-28T06:18:59;5.93;;;3.53;;
44197;SDS011;30157;55.512;37.764;2023-02-28T06:21:26;5.78;;;3.55;;
44197;SDS011;30157;55.512;37.764;2023-02-28T06:23:55;5.53;;;3.38;;
44197;SDS011;30157;55.512;37.764;2023-02-28T06:26:22;5.70;;;3.20;;
44197;SDS011;30157;55.512;37.764;2023-02-28T06:28:47;5.47;;;3.60;;
44197;SDS011;30157;55.512;37.764;2023-02-28T06:31:14;6.32;;;3.58;;
44197;SDS011;30157;55.512;37.764;2023-02-28T06:33:42;6.22;;;3.65;;
44197;SDS011;30157;55.512;37.764;2023-02-28T06:36:08;5.55;;;3.20;;
44197;SDS011;30157;55.512;37.764;2023-02-28T06:38:36;5.78;;;3.08;;
44197;SDS011;30157;55.512;37.764;2023-02-28T06:41:03;5.72;;;3.40;;
44197;SDS011;30157;55.512;37.764;2023-02-28T06:43:29;6.60;;;3.38;;
44197;SDS011;30157;55.512;37.764;2023-02-28T06:45:58;4.70;;;3.35;;
44197;SDS011;30157;55.512;37.764;2023-02-28T06:48:25;6.32;;;3.40;;
44197;SDS011;30157;55.512;37.764;2023-02-28T06:50:51;6.13;;;3.35;;
44197;SDS011;30157;55.512;37.764;2023-02-28T06:53:17;5.20;;;3.00;;
44197;SDS011;30157;55.512;37.764;2023-02-28T06:55:42;4.65;;;2.83;;
44197;SDS011;30157;55.512;37.764;2023-02-28T06:58:08;5.38;;;2.95;;
44197;SDS011;30157;55.512;37.764;2023-02-28T07:00:42;5.32;;;3.17;;
44197;SDS011;30157;55.512;37.764;2023-02-28T07:03:09;7.57;;;2.67;;
44197;SDS011;30157;55.512;37.764;2023-02-28T07:05:36;6.07;;;3.28;;
44197;SDS011;30157;55.512;37.764;2023-02-28T07:08:03;5.53;;;3.60;;
44197;SDS011;30157;55.512;37.764;2023-02-28T07:10:29;5.85;;;2.67;;
44197;SDS011;30157;55.512;37.764;2023-02-28T07:12:55;6.32;;;3.00;;
44197;SDS011;30157;55.512;37.764;2023-02-28T07:15:21;4.72;;;2.63;;
44197;SDS011;30157;55.512;37.764;2023-02-28T07:17:46;6.53;;;2.88;;
44197;SDS011;30157;55.512;37.764;2023-02-28T07:20:12;5.72;;;3.13;;
44197;SDS011;30157;55.512;37.764;2023-02-28T07:22:38;3.92;;;2.80;;
44197;SDS011;30157;55.512;37.764;2023-02-28T07:25:04;4.95;;;2.95;;
44197;SDS011;30157;55.512;37.764;2023-02-28T07:27:31;7.07;;;3.00;;
44197;SDS011;30157;55.512;37.764;2023-02-28T07:29:57;4.95;;;2.80;;
44197;SDS011;30157;55.512;37.764;2023-02-28T07:32:22;5.30;;;2.90;;
44197;SDS011;30157;55.512;37.764;2023-02-28T07:34:48;6.03;;;3.58;;
44197;SDS011;30157;55.512;37.764;2023-02-28T07:37:14;6.65;;;3.38;;
44197;SDS011;30157;55.512;37.764;2023-02-28T07:39:40;5.78;;;2.92;;
44197;SDS011;30157;55.512;37.764;2023-02-28T07:42:08;6.07;;;3.20;;
44197;SDS011;30157;55.512;37.764;2023-02-28T07:44:40;6.07;;;2.97;;
44197;SDS011;30157;55.512;37.764;2023-02-28T07:47:08;7.55;;;3.10;;
44197;SDS011;30157;55.512;37.764;2023-02-28T07:49:38;6.18;;;3.35;;
44197;SDS011;30157;55.512;37.764;2023-02-28T07:52:05;6.18;;;3.08;;
44197;SDS011;30157;55.512;37.764;2023-02-28T07:54:31;5.70;;;3.65;;
44197;SDS011;30157;55.512;37.764;2023-02-28T07:56:57;6.43;;;3.83;;
44197;SDS011;30157;55.512;37.764;2023-02-28T07:59:23;7.68;;;3.58;;
44197;SDS011;30157;55.512;37.764;2023-02-28T08:01:49;8.77;;;3.47;;
44197;SDS011;30157;55.512;37.764;2023-02-28T08:04:18;7.85;;;3.13;;
44197;SDS011;30157;55.512;37.764;2023-02-28T08:06:46;8.23;;;3.53;;
44197;SDS011;30157;55.512;37.764;2023-02-28T08:09:12;9.38;;;3.60;;
44197;SDS011;30157;55.512;37.764;2023-02-28T08:11:38;6.45;;;3.72;;
44197;SDS011;30157;55.512;37.764;2023-02-28T08:14:03;8.68;;;4.20;;
44197;SDS011;30157;55.512;37.764;2023-02-28T08:16:29;6.72;;;3.70;;
44197;SDS011;30157;55.512;37.764;2023-02-28T08:18:55;7.78;;;3.30;;
44197;SDS011;30157;55.512;37.764;2023-02-28T08:21:20;5.53;;;3.40;;
44197;SDS011;30157;55.512;37.764;2023-02-28T08:23:47;5.70;;;3.47;;
44197;SDS011;30157;55.512;37.764;2023-02-28T08:26:14;6.70;;;3.47;;
44197;SDS011;30157;55.512;37.764;2023-02-28T08:28:41;6.00;;;3.60;;
44197;SDS011;30157;55.512;37.764;2023-02-28T08:31:07;6.50;;;3.60;;
44197;SDS011;30157;55.512;37.764;2023-02-28T08:33:39;6.82;;;3.70;;
44197;SDS011;30157;55.512;37.764;2023-02-28T08:36:05;7.65;;;3.92;;
44197;SDS011;30157;55.512;37.764;2023-02-28T08:38:32;6.43;;;3.72;;
44197;SDS011;30157;55.512;37.764;2023-02-28T08:41:01;8.40;;;4.22;;
44197;SDS011;30157;55.512;37.764;2023-02-28T08:43:33;8.07;;;4.05;;
44197;SDS011;30157;55.512;37.764;2023-02-28T08:45:59;7.00;;;4.00;;
44197;SDS011;30157;55.512;37.764;2023-02-28T08:48:26;6.75;;;3.83;;
44197;SDS011;30157;55.512;37.764;2023-02-28T08:51:00;7.80;;;4.47;;
44197;SDS011;30157;55.512;37.764;2023-02-28T08:56:00;9.70;;;4.22;;
44197;SDS011;30157;55.512;37.764;2023-02-28T08:58:31;6.15;;;3.75;;
44197;SDS011;30157;55.512;37.764;2023-02-28T09:00:58;7.53;;;3.97;;
44197;SDS011;30157;55.512;37.764;2023-02-28T09:03:24;8.00;;;4.40;;
44197;SDS011;30157;55.512;37.764;2023-02-28T09:05:56;8.80;;;4.18;;
44197;SDS011;30157;55.512;37.764;2023-02-28T09:08:24;10.18;;;4.10;;
44197;SDS011;30157;55.512;37.764;2023-02-28T09:10:50;7.20;;;3.60;;
44197;SDS011;30157;55.512;37.764;2023-02-28T09:13:17;6.22;;;3.38;;
44197;SDS011;30157;55.512;37.764;2023-02-28T09:15:44;6.70;;;3.35;;
44197;SDS011;30157;55.512;37.764;2023-02-28T09:18:10;11.85;;;5.32;;
44197;SDS011;30157;55.512;37.764;2023-02-28T09:20:39;6.22;;;3.30;;
44197;SDS011;30157;55.512;37.764;2023-02-28T09:23:07;7.68;;;3.30;;
44197;SDS011;30157;55.512;37.764;2023-02-28T09:25:34;5.57;;;3.28;;
44197;SDS011;30157;55.512;37.764;2023-02-28T09:28:00;5.82;;;3.20;;
44197;SDS011;30157;55.512;37.764;2023-02-28T09:30:26;5.65;;;3.20;;
44197;SDS011;30157;55.512;37.764;2023-02-28T09:32:52;6.60;;;3.22;;
44197;SDS011;30157;55.512;37.764;2023-02-28T09:35:22;7.28;;;3.42;;
44197;SDS011;30157;55.512;37.764;2023-02-28T09:37:49;7.43;;;3.35;;
44197;SDS011;30157;55.512;37.764;2023-02-28T09:40:17;8.50;;;3.63;;
44197;SDS011;30157;55.512;37.764;2023-02-28T09:42:45;6.32;;;2.92;;
44197;SDS011;30157;55.512;37.764;2023-02-28T09:45:17;6.88;;;3.65;;
44197;SDS011;30157;55.512;37.764;2023-02-28T09:47:59;11.65;;;6.18;;
44197;SDS011;30157;55.512;37.764;2023-02-28T09:50:31;6.35;;;3.40;;
44197;SDS011;30157;55.512;37.764;2023-02-28T09:53:23;7.75;;;3.38;;
44197;SDS011;30157;55.512;37.764;2023-02-28T09:55:57;6.80;;;3.30;;
44197;SDS011;30157;55.512;37.764;2023-02-28T09:58:37;6.88;;;3.25;;
44197;SDS011;30157;55.512;37.764;2023-02-28T10:03:58;8.63;;;3.40;;
44197;SDS011;30157;55.512;37.764;2023-02-28T10:06:30;7.22;;;2.97;;
44197;SDS011;30157;55.512;37.764;2023-02-28T10:09:03;6.43;;;3.28;;
44197;SDS011;30157;55.512;37.764;2023-02-28T10:11:35;6.30;;;3.22;;
44197;SDS011;30157;55.512;37.764;2023-02-28T10:14:06;5.63;;;3.20;;
44197;SDS011;30157;55.512;37.764;2023-02-28T10:16:45;6.70;;;2.97;;
44197;SDS011;30157;55.512;37.764;2023-02-28T10:19:22;4.50;;;2.72;;
44197;SDS011;30157;55.512;37.764;2023-02-28T10:22:01;5.30;;;2.78;;
44197;SDS011;30157;55.512;37.764;2023-02-28T10:24:41;5.57;;;2.90;;
44197;SDS011;30157;55.512;37.764;2023-02-28T10:27:15;6.30;;;2.95;;
44197;SDS011;30157;55.512;37.764;2023-02-28T10:29:45;5.65;;;2.75;;
44197;SDS011;30157;55.512;37.764;2023-02-28T10:32:14;4.97;;;2.72;;
44197;SDS011;30157;55.512;37.764;2023-02-28T10:34:43;5.95;;;2.97;;
44197;SDS011;30157;55.512;37.764;2023-02-28T10:37:10;5.18;;;2.78;;
44197;SDS011;30157;55.512;37.764;2023-02-28T10:39:40;7.18;;;3.55;;
44197;SDS011;30157;55.512;37.764;2023-02-28T10:42:21;5.53;;;2.90;;
44197;SDS011;30157;55.512;37.764;2023-02-28T10:45:11;4.75;;;2.65;;
44197;SDS011;30157;55.512;37.764;2023-02-28T10:50:42;6.93;;;3.38;;
44197;SDS011;30157;55.512;37.764;2023-02-28T10:55:58;7.78;;;2.95;;
44197;SDS011;30157;55.512;37.764;2023-02-28T11:03:47;7.47;;;3.13;;
44197;SDS011;30157;55.512;37.764;2023-02-28T11:06:21;6.57;;;2.95;;
44197;SDS011;30157;55.512;37.764;2023-02-28T11:08:54;4.63;;;2.65;;
44197;SDS011;30157;55.512;37.764;2023-02-28T11:11:23;5.68;;;2.70;;
44197;SDS011;30157;55.512;37.764;2023-02-28T11:13:52;4.70;;;2.70;;
44197;SDS011;30157;55.512;37.764;2023-02-28T11:16:22;4.75;;;2.45;;
44197;SDS011;30157;55.512;37.764;2023-02-28T11:19:00;4.72;;;2.85;;
44197;SDS011;30157;55.512;37.764;2023-02-28T11:21:33;6.43;;;3.10;;
44197;SDS011;30157;55.512;37.764;2023-02-28T11:24:05;6.25;;;3.22;;
44197;SDS011;30157;55.512;37.764;2023-02-28T11:26:44;6.60;;;3.10;;
44197;SDS011;30157;55.512;37.764;2023-02-28T11:29:15;6.13;;;3.05;;
44197;SDS011;30157;55.512;37.764;2023-02-28T11:32:01;7.50;;;3.00;;
44197;SDS011;30157;55.512;37.764;2023-02-28T11:34:27;4.45;;;2.58;;
44197;SDS011;30157;55.512;37.764;2023-02-28T11:36:54;5.30;;;2.88;;
44197;SDS011;30157;55.512;37.764;2023-02-28T11:39:22;5.93;;;3.08;;
44197;SDS011;30157;55.512;37.764;2023-02-28T11:52:55;6.88;;;3.20;;
44197;SDS011;30157;55.512;37.764;2023-02-28T12:03:30;8.27;;;3.75;;
44197;SDS011;30157;55.512;37.764;2023-02-28T12:11:48;6.10;;;3.30;;
44197;SDS011;30157;55.512;37.764;2023-02-28T12:14:29;5.38;;;2.85;;
44197;SDS011;30157;55.512;37.764;2023-02-28T12:17:05;6.97;;;3.00;;
44197;SDS011;30157;55.512;37.764;2023-02-28T12:20:09;5.85;;;3.22;;
44197;SDS011;30157;55.512;37.764;2023-02-28T12:25:37;7.15;;;3.10;;
44197;SDS011;30157;55.512;37.764;2023-02-28T12:28:10;8.55;;;3.38;;
44197;SDS011;30157;55.512;37.764;2023-02-28T12:30:52;9.88;;;4.68;;
44197;SDS011;30157;55.512;37.764;2023-02-28T12:33:22;5.28;;;2.97;;
44197;SDS011;30157;55.512;37.764;2023-02-28T12:35:57;7.55;;;3.42;;
44197;SDS011;30157;55.512;37.764;2023-02-28T12:38:29;6.32;;;3.42;;
44197;SDS011;30157;55.512;37.764;2023-02-28T12:43:44;6.25;;;3.60;;
44197;SDS011;30157;55.512;37.764;2023-02-28T12:48:59;6.50;;;3.47;;
44197;SDS011;30157;55.512;37.764;2023-02-28T12:51:29;7.80;;;4.03;;
44197;SDS011;30157;55.512;37.764;2023-02-28T12:59:51;6.63;;;3.22;;
44197;SDS011;30157;55.512;37.764;2023-02-28T13:11:01;5.40;;;3.20;;
44197;SDS011;30157;55.512;37.764;2023-02-28T13:13:28;5.60;;;2.92;;
44197;SDS011;30157;55.512;37.764;2023-02-28T13:16:00;7.35;;;3.53;;
44197;SDS011;30157;55.512;37.764;2023-02-28T13:18:36;5.85;;;3.42;;
44197;SDS011;30157;55.512;37.764;2023-02-28T13:21:06;5.88;;;3.33;;
44197;SDS011;30157;55.512;37.764;2023-02-28T13:23:41;6.75;;;3.75;;
44197;SDS011;30157;55.512;37.764;2023-02-28T13:29:00;5.53;;;3.25;;
44197;SDS011;30157;55.512;37.764;2023-02-28T13:31:27;7.18;;;3.80;;
44197;SDS011;30157;55.512;37.764;2023-02-28T13:36:31;7.40;;;3.38;;
44197;SDS011;30157;55.512;37.764;2023-02-28T13:38:58;5.75;;;3.30;;
44197;SDS011;30157;55.512;37.764;2023-02-28T13:49:35;7.35;;;3.65;;
44197;SDS011;30157;55.512;37.764;2023-02-28T14:00:35;4.35;;;2.85;;
44197;SDS011;30157;55.512;37.764;2023-02-28T14:05:46;5.22;;;3.10;;
44197;SDS011;30157;55.512;37.764;2023-02-28T14:08:22;4.97;;;3.15;;
44197;SDS011;30157;55.512;37.764;2023-02-28T14:15:59;7.20;;;3.22;;
44197;SDS011;30157;55.512;37.764;2023-02-28T14:18:31;5.35;;;2.60;;
44197;SDS011;30157;55.512;37.764;2023-02-28T14:21:01;9.65;;;5.05;;
44197;SDS011;30157;55.512;37.764;2023-02-28T14:31:43;6.85;;;2.92;;
44197;SDS011;30157;55.512;37.764;2023-02-28T14:37:03;5.20;;;3.00;;
44197;SDS011;30157;55.512;37.764;2023-02-28T14:39:29;4.78;;;2.72;;
44197;SDS011;30157;55.512;37.764;2023-02-28T14:41:56;4.78;;;2.92;;
44197;SDS011;30157;55.512;37.764;2023-02-28T14:44:28;6.10;;;3.10;;
44197;SDS011;30157;55.512;37.764;2023-02-28T14:46:55;4.75;;;2.70;;
44197;SDS011;30157;55.512;37.764;2023-02-28T14:49:55;5.93;;;3.03;;
44197;SDS011;30157;55.512;37.764;2023-02-28T14:54:42;6.00;;;3.22;;
44197;SDS011;30157;55.512;37.764;2023-02-28T15:00:20;4.22;;;2.67;;
44197;SDS011;30157;55.512;37.764;2023-02-28T15:02:54;4.60;;;2.78;;
44197;SDS011;30157;55.512;37.764;2023-02-28T15:08:05;5.90;;;3.22;;
44197;SDS011;30157;55.512;37.764;2023-02-28T15:10:37;5.00;;;2.92;;
44197;SDS011;30157;55.512;37.764;2023-02-28T15:13:06;5.93;;;3.17;;
44197;SDS011;30157;55.512;37.764;2023-02-28T15:17:59;5.85;;;3.47;;
44197;SDS011;30157;55.512;37.764;2023-02-28T15:20:28;6.47;;;3.30;;
44197;SDS011;30157;55.512;37.764;2023-02-28T15:22:54;5.57;;;3.17;;
44197;SDS011;30157;55.512;37.764;2023-02-28T15:25:21;5.65;;;3.30;;
44197;SDS011;30157;55.512;37.764;2023-02-28T15:27:49;5.25;;;3.20;;
44197;SDS011;30157;55.512;37.764;2023-02-28T15:30:24;7.35;;;3.83;;
44197;SDS011;30157;55.512;37.764;2023-02-28T15:33:54;5.00;;;2.83;;
44197;SDS011;30157;55.512;37.764;2023-02-28T15:38:55;5.57;;;3.42;;
44197;SDS011;30157;55.512;37.764;2023-02-28T15:41:22;6.22;;;3.13;;
44197;SDS011;30157;55.512;37.764;2023-02-28T15:46:57;5.90;;;2.53;;
44197;SDS011;30157;55.512;37.764;2023-02-28T15:49:26;6.55;;;3.47;;
44197;SDS011;30157;55.512;37.764;2023-02-28T15:51:57;5.28;;;3.22;;
44197;SDS011;30157;55.512;37.764;2023-02-28T15:54:28;5.72;;;3.30;;
44197;SDS011;30157;55.512;37.764;2023-02-28T15:57:03;5.75;;;3.05;;
44197;SDS011;30157;55.512;37.764;2023-02-28T15:59:34;4.78;;;2.92;;
44197;SDS011;30157;55.512;37.764;2023-02-28T16:02:02;5.25;;;3.47;;
44197;SDS011;30157;55.512;37.764;2023-02-28T16:07:29;5.63;;;3.38;;
44197;SDS011;30157;55.512;37.764;2023-02-28T16:09:54;5.05;;;3.47;;
44197;SDS011;30157;55.512;37.764;2023-02-28T16:12:20;6.63;;;3.67;;
44197;SDS011;30157;55.512;37.764;2023-02-28T16:14:51;5.43;;;2.90;;
44197;SDS011;30157;55.512;37.764;2023-02-28T16:17:22;5.13;;;3.20;;
44197;SDS011;30157;55.512;37.764;2023-02-28T16:19:50;5.57;;;3.00;;
44197;SDS011;30157;55.512;37.764;2023-02-28T16:22:16;6.63;;;3.45;;
44197;SDS011;30157;55.512;37.764;2023-02-28T16:24:41;7.55;;;3.60;;
44197;SDS011;30157;55.512;37.764;2023-02-28T16:27:10;6.30;;;3.40;;
44197;SDS011;30157;55.512;37.764;2023-02-28T16:29:45;4.95;;;3.10;;
44197;SDS011;30157;55.512;37.764;2023-02-28T16:32:13;6.35;;;3.15;;
44197;SDS011;30157;55.512;37.764;2023-02-28T16:34:40;6.20;;;3.67;;
44197;SDS011;30157;55.512;37.764;2023-02-28T16:37:14;4.97;;;3.10;;
44197;SDS011;30157;55.512;37.764;2023-02-28T16:39:42;6.53;;;3.42;;
44197;SDS011;30157;55.512;37.764;2023-02-28T16:42:14;6.35;;;3.55;;
44197;SDS011;30157;55.512;37.764;2023-02-28T16:44:52;5.15;;;3.10;;
44197;SDS011;30157;55.512;37.764;2023-02-28T16:47:18;4.68;;;3.00;;
44197;SDS011;30157;55.512;37.764;2023-02-28T16:49:44;5.32;;;3.05;;
44197;SDS011;30157;55.512;37.764;2023-02-28T16:52:10;6.15;;;3.42;;
44197;SDS011;30157;55.512;37.764;2023-02-28T16:54:39;5.93;;;3.40;;
44197;SDS011;30157;55.512;37.764;2023-02-28T16:57:08;5.57;;;3.13;;
44197;SDS011;30157;55.512;37.764;2023-02-28T16:59:45;7.07;;;3.20;;
44197;SDS011;30157;55.512;37.764;2023-02-28T17:02:11;5.72;;;3.30;;
44197;SDS011;30157;55.512;37.764;2023-02-28T17:04:39;6.88;;;4.13;;
44197;SDS011;30157;55.512;37.764;2023-02-28T17:07:06;12.70;;;8.07;;
44197;SDS011;30157;55.512;37.764;2023-02-28T17:09:36;7.00;;;3.60;;
44197;SDS011;30157;55.512;37.764;2023-02-28T17:12:02;12.35;;;7.78;;
44197;SDS011;30157;55.512;37.764;2023-02-28T17:14:27;11.10;;;6.13;;
44197;SDS011;30157;55.512;37.764;2023-02-28T17:16:53;7.97;;;4.60;;
44197;SDS011;30157;55.512;37.764;2023-02-28T17:19:18;7.03;;;3.55;;
44197;SDS011;30157;55.512;37.764;2023-02-28T17:21:45;5.13;;;2.97;;
44197;SDS011;30157;55.512;37.764;2023-02-28T17:24:11;5.78;;;3.20;;